sensor_id;sensor_type;location;lat;lon;timestamp;P1;durP1;ratioP1;P2;durP2;ratioP2
38683;SDS011;24910;53.248;-6.134;2023-01-16T00:00:37;38.75;;;16.65;;
38683;SDS011;24910;53.248;-6.134;2023-01-16T00:03:06;34.15;;;16.27;;
38683;SDS011;24910;53.248;-6.134;2023-01-16T00:05:35;36.50;;;16.90;;
38683;SDS011;24910;53.248;-6.134;2023-01-16T00:08:05;38.42;;;17.05;;
38683;SDS011;24910;53.248;-6.134;2023-01-16T00:10:34;33.97;;;16.50;;
38683;SDS011;24910;53.248;-6.134;2023-01-16T00:13:03;33.65;;;16.45;;
38683;SDS011;24910;53.248;-6.134;2023-01-16T00:15:32;39.70;;;16.65;;
38683;SDS011;24910;53.248;-6.134;2023-01-16T00:18:01;38.55;;;16.83;;
38683;SDS011;24910;53.248;-6.134;2023-01-16T00:20:30;39.42;;;17.77;;
38683;SDS011;24910;53.248;-6.134;2023-01-16T00:22:59;33.88;;;15.90;;
38683;SDS011;24910;53.248;-6.134;2023-01-16T00:25:30;35.25;;;16.75;;
38683;SDS011;24910;53.248;-6.134;2023-01-16T00:27:59;32.75;;;15.82;;
38683;SDS011;24910;53.248;-6.134;2023-01-16T00:30:28;40.65;;;16.25;;
38683;SDS011;24910;53.248;-6.134;2023-01-16T00:32:57;35.22;;;16.85;;
38683;SDS011;24910;53.248;-6.134;2023-01-16T00:35:26;34.33;;;15.02;;
38683;SDS011;24910;53.248;-6.134;2023-01-16T00:37:55;31.95;;;14.10;;
38683;SDS011;24910;53.248;-6.134;2023-01-16T00:40:24;33.33;;;15.07;;
38683;SDS011;24910;53.248;-6.134;2023-01-16T00:42:55;30.75;;;14.38;;
38683;SDS011;24910;53.248;-6.134;2023-01-16T00:45:24;30.73;;;14.73;;
38683;SDS011;24910;53.248;-6.134;2023-01-16T00:47:53;27.60;;;14.13;;
38683;SDS011;24910;53.248;-6.134;2023-01-16T00:50:22;31.90;;;14.18;;
38683;SDS011;24910;53.248;-6.134;2023-01-16T00:52:51;28.08;;;13.68;;
38683;SDS011;24910;53.248;-6.134;2023-01-16T00:55:20;25.85;;;13.43;;
38683;SDS011;24910;53.248;-6.134;2023-01-16T00:57:49;24.48;;;13.27;;
38683;SDS011;24910;53.248;-6.134;2023-01-16T01:00:20;29.02;;;14.15;;
38683;SDS011;24910;53.248;-6.134;2023-01-16T01:02:49;28.83;;;13.38;;
38683;SDS011;24910;53.248;-6.134;2023-01-16T01:05:19;26.63;;;13.10;;
38683;SDS011;24910;53.248;-6.134;2023-01-16T01:07:48;26.08;;;12.80;;
38683;SDS011;24910;53.248;-6.134;2023-01-16T01:10:17;25.00;;;12.60;;
38683;SDS011;24910;53.248;-6.134;2023-01-16T01:12:46;32.17;;;13.63;;
38683;SDS011;24910;53.248;-6.134;2023-01-16T01:15:15;28.75;;;13.07;;
38683;SDS011;24910;53.248;-6.134;2023-01-16T01:17:45;26.17;;;12.07;;
38683;SDS011;24910;53.248;-6.134;2023-01-16T01:20:15;30.77;;;13.48;;
38683;SDS011;24910;53.248;-6.134;2023-01-16T01:22:45;25.75;;;12.68;;
38683;SDS011;24910;53.248;-6.134;2023-01-16T01:25:18;27.55;;;13.43;;
38683;SDS011;24910;53.248;-6.134;2023-01-16T01:27:47;26.50;;;12.95;;
38683;SDS011;24910;53.248;-6.134;2023-01-16T01:30:17;28.55;;;13.93;;
38683;SDS011;24910;53.248;-6.134;2023-01-16T01:32:47;29.08;;;13.40;;
38683;SDS011;24910;53.248;-6.134;2023-01-16T01:35:16;23.87;;;12.27;;
38683;SDS011;24910;53.248;-6.134;2023-01-16T01:37:46;26.63;;;11.88;;
38683;SDS011;24910;53.248;-6.134;2023-01-16T01:40:16;22.10;;;11.20;;
38683;SDS011;24910;53.248;-6.134;2023-01-16T01:42:45;21.95;;;11.40;;
38683;SDS011;24910;53.248;-6.134;2023-01-16T01:45:20;24.52;;;11.80;;
38683;SDS011;24910;53.248;-6.134;2023-01-16T01:48:01;23.55;;;11.43;;
38683;SDS011;24910;53.248;-6.134;2023-01-16T01:50:36;21.70;;;10.45;;
38683;SDS011;24910;53.248;-6.134;2023-01-16T01:53:11;22.63;;;9.52;;
38683;SDS011;24910;53.248;-6.134;2023-01-16T01:55:43;24.77;;;10.65;;
38683;SDS011;24910;53.248;-6.134;2023-01-16T01:58:16;23.65;;;11.30;;
38683;SDS011;24910;53.248;-6.134;2023-01-16T02:00:52;23.80;;;10.95;;
38683;SDS011;24910;53.248;-6.134;2023-01-16T02:03:27;23.13;;;11.93;;
38683;SDS011;24910;53.248;-6.134;2023-01-16T02:06:01;23.70;;;11.32;;
38683;SDS011;24910;53.248;-6.134;2023-01-16T02:08:34;23.30;;;10.30;;
38683;SDS011;24910;53.248;-6.134;2023-01-16T02:11:05;23.55;;;11.20;;
38683;SDS011;24910;53.248;-6.134;2023-01-16T02:13:53;20.50;;;10.20;;
38683;SDS011;24910;53.248;-6.134;2023-01-16T02:16:24;21.25;;;10.13;;
38683;SDS011;24910;53.248;-6.134;2023-01-16T02:19:15;20.48;;;10.15;;
38683;SDS011;24910;53.248;-6.134;2023-01-16T02:22:05;23.77;;;9.95;;
38683;SDS011;24910;53.248;-6.134;2023-01-16T02:25:17;23.92;;;10.38;;
38683;SDS011;24910;53.248;-6.134;2023-01-16T02:28:19;23.08;;;9.82;;
38683;SDS011;24910;53.248;-6.134;2023-01-16T02:31:12;18.55;;;8.85;;
38683;SDS011;24910;53.248;-6.134;2023-01-16T02:33:56;20.38;;;9.20;;
38683;SDS011;24910;53.248;-6.134;2023-01-16T02:36:37;16.33;;;7.85;;
38683;SDS011;24910;53.248;-6.134;2023-01-16T02:39:16;14.73;;;7.43;;
38683;SDS011;24910;53.248;-6.134;2023-01-16T02:41:56;19.20;;;7.97;;
38683;SDS011;24910;53.248;-6.134;2023-01-16T02:44:35;17.83;;;7.72;;
38683;SDS011;24910;53.248;-6.134;2023-01-16T02:47:13;17.92;;;7.28;;
38683;SDS011;24910;53.248;-6.134;2023-01-16T02:49:53;15.70;;;6.38;;
38683;SDS011;24910;53.248;-6.134;2023-01-16T02:52:31;14.15;;;5.75;;
38683;SDS011;24910;53.248;-6.134;2023-01-16T02:55:04;11.35;;;4.60;;
38683;SDS011;24910;53.248;-6.134;2023-01-16T02:57:41;10.57;;;4.38;;
38683;SDS011;24910;53.248;-6.134;2023-01-16T03:00:14;12.27;;;5.00;;
38683;SDS011;24910;53.248;-6.134;2023-01-16T03:02:47;13.90;;;5.47;;
38683;SDS011;24910;53.248;-6.134;2023-01-16T03:05:16;12.05;;;5.60;;
38683;SDS011;24910;53.248;-6.134;2023-01-16T03:13:44;9.90;;;4.65;;
38683;SDS011;24910;53.248;-6.134;2023-01-16T03:16:32;7.13;;;4.00;;
38683;SDS011;24910;53.248;-6.134;2023-01-16T03:19:12;7.53;;;3.97;;
38683;SDS011;24910;53.248;-6.134;2023-01-16T03:21:53;6.35;;;3.75;;
38683;SDS011;24910;53.248;-6.134;2023-01-16T03:24:42;6.95;;;3.85;;
38683;SDS011;24910;53.248;-6.134;2023-01-16T03:27:24;6.32;;;3.30;;
38683;SDS011;24910;53.248;-6.134;2023-01-16T03:30:02;7.30;;;3.10;;
38683;SDS011;24910;53.248;-6.134;2023-01-16T03:32:40;9.18;;;3.40;;
38683;SDS011;24910;53.248;-6.134;2023-01-16T03:35:14;5.50;;;3.10;;
38683;SDS011;24910;53.248;-6.134;2023-01-16T03:37:48;5.15;;;2.80;;
38683;SDS011;24910;53.248;-6.134;2023-01-16T03:40:21;4.50;;;2.65;;
38683;SDS011;24910;53.248;-6.134;2023-01-16T03:42:53;5.78;;;2.60;;
38683;SDS011;24910;53.248;-6.134;2023-01-16T03:45:29;3.35;;;2.42;;
38683;SDS011;24910;53.248;-6.134;2023-01-16T03:48:06;4.15;;;2.70;;
38683;SDS011;24910;53.248;-6.134;2023-01-16T03:50:41;3.80;;;2.42;;
38683;SDS011;24910;53.248;-6.134;2023-01-16T03:53:15;4.50;;;2.60;;
38683;SDS011;24910;53.248;-6.134;2023-01-16T03:55:50;4.82;;;2.53;;
38683;SDS011;24910;53.248;-6.134;2023-01-16T03:58:26;3.80;;;2.50;;
38683;SDS011;24910;53.248;-6.134;2023-01-16T04:01:01;4.45;;;2.50;;
38683;SDS011;24910;53.248;-6.134;2023-01-16T04:03:41;3.42;;;2.42;;
38683;SDS011;24910;53.248;-6.134;2023-01-16T04:09:29;4.90;;;2.50;;
38683;SDS011;24910;53.248;-6.134;2023-01-16T04:12:07;5.53;;;2.70;;
38683;SDS011;24910;53.248;-6.134;2023-01-16T04:14:37;4.20;;;2.30;;
38683;SDS011;24910;53.248;-6.134;2023-01-16T04:17:08;4.32;;;2.20;;
38683;SDS011;24910;53.248;-6.134;2023-01-16T04:19:38;3.60;;;2.53;;
38683;SDS011;24910;53.248;-6.134;2023-01-16T04:22:09;3.60;;;2.20;;
38683;SDS011;24910;53.248;-6.134;2023-01-16T04:24:47;5.83;;;2.03;;
38683;SDS011;24910;53.248;-6.134;2023-01-16T04:27:17;4.68;;;1.95;;
38683;SDS011;24910;53.248;-6.134;2023-01-16T04:29:47;4.25;;;1.60;;
38683;SDS011;24910;53.248;-6.134;2023-01-16T04:32:16;5.40;;;1.70;;
38683;SDS011;24910;53.248;-6.134;2023-01-16T04:34:45;3.90;;;1.77;;
38683;SDS011;24910;53.248;-6.134;2023-01-16T04:37:16;4.00;;;2.03;;
38683;SDS011;24910;53.248;-6.134;2023-01-16T04:39:45;3.20;;;1.70;;
38683;SDS011;24910;53.248;-6.134;2023-01-16T04:42:16;3.20;;;1.80;;
38683;SDS011;24910;53.248;-6.134;2023-01-16T04:44:45;3.45;;;2.35;;
38683;SDS011;24910;53.248;-6.134;2023-01-16T04:47:14;2.97;;;1.85;;
38683;SDS011;24910;53.248;-6.134;2023-01-16T04:49:43;5.38;;;1.85;;
38683;SDS011;24910;53.248;-6.134;2023-01-16T04:52:12;4.65;;;1.65;;
38683;SDS011;24910;53.248;-6.134;2023-01-16T04:54:43;4.20;;;1.73;;
38683;SDS011;24910;53.248;-6.134;2023-01-16T04:57:12;5.90;;;1.50;;
38683;SDS011;24910;53.248;-6.134;2023-01-16T04:59:41;3.95;;;1.65;;
38683;SDS011;24910;53.248;-6.134;2023-01-16T05:02:10;5.05;;;1.65;;
38683;SDS011;24910;53.248;-6.134;2023-01-16T05:04:40;3.30;;;1.35;;
38683;SDS011;24910;53.248;-6.134;2023-01-16T05:07:09;4.00;;;1.35;;
38683;SDS011;24910;53.248;-6.134;2023-01-16T05:09:38;1.90;;;1.20;;
38683;SDS011;24910;53.248;-6.134;2023-01-16T05:12:08;3.80;;;1.48;;
38683;SDS011;24910;53.248;-6.134;2023-01-16T05:14:37;6.68;;;1.30;;
38683;SDS011;24910;53.248;-6.134;2023-01-16T05:17:06;2.97;;;1.15;;
38683;SDS011;24910;53.248;-6.134;2023-01-16T05:19:35;5.75;;;1.10;;
38683;SDS011;24910;53.248;-6.134;2023-01-16T05:22:04;3.00;;;1.05;;
38683;SDS011;24910;53.248;-6.134;2023-01-16T05:24:33;3.17;;;0.93;;
38683;SDS011;24910;53.248;-6.134;2023-01-16T05:27:02;3.70;;;0.95;;
38683;SDS011;24910;53.248;-6.134;2023-01-16T05:29:33;2.67;;;1.05;;
38683;SDS011;24910;53.248;-6.134;2023-01-16T05:32:02;4.50;;;0.90;;
38683;SDS011;24910;53.248;-6.134;2023-01-16T05:34:31;1.65;;;1.02;;
38683;SDS011;24910;53.248;-6.134;2023-01-16T05:37:00;4.18;;;1.00;;
38683;SDS011;24910;53.248;-6.134;2023-01-16T05:39:29;5.70;;;1.00;;
38683;SDS011;24910;53.248;-6.134;2023-01-16T05:41:58;1.70;;;0.95;;
38683;SDS011;24910;53.248;-6.134;2023-01-16T05:44:27;3.75;;;1.25;;
38683;SDS011;24910;53.248;-6.134;2023-01-16T05:46:58;4.90;;;1.30;;
38683;SDS011;24910;53.248;-6.134;2023-01-16T05:49:27;2.40;;;0.88;;
38683;SDS011;24910;53.248;-6.134;2023-01-16T05:51:56;4.38;;;1.00;;
38683;SDS011;24910;53.248;-6.134;2023-01-16T05:54:25;4.38;;;1.10;;
38683;SDS011;24910;53.248;-6.134;2023-01-16T05:56:55;4.00;;;2.13;;
38683;SDS011;24910;53.248;-6.134;2023-01-16T05:59:29;5.30;;;1.50;;
38683;SDS011;24910;53.248;-6.134;2023-01-16T06:02:09;3.88;;;1.30;;
38683;SDS011;24910;53.248;-6.134;2023-01-16T06:04:40;4.82;;;1.58;;
38683;SDS011;24910;53.248;-6.134;2023-01-16T06:07:32;6.03;;;1.35;;
38683;SDS011;24910;53.248;-6.134;2023-01-16T06:10:01;7.53;;;1.40;;
38683;SDS011;24910;53.248;-6.134;2023-01-16T06:12:30;5.20;;;1.65;;
38683;SDS011;24910;53.248;-6.134;2023-01-16T06:15:00;9.77;;;1.75;;
38683;SDS011;24910;53.248;-6.134;2023-01-16T06:17:31;5.78;;;1.55;;
38683;SDS011;24910;53.248;-6.134;2023-01-16T06:20:00;7.07;;;1.60;;
38683;SDS011;24910;53.248;-6.134;2023-01-16T06:22:29;5.40;;;1.67;;
38683;SDS011;24910;53.248;-6.134;2023-01-16T06:24:58;3.90;;;1.60;;
38683;SDS011;24910;53.248;-6.134;2023-01-16T06:27:27;3.58;;;1.70;;
38683;SDS011;24910;53.248;-6.134;2023-01-16T06:29:56;6.25;;;1.70;;
38683;SDS011;24910;53.248;-6.134;2023-01-16T06:32:25;6.20;;;1.60;;
38683;SDS011;24910;53.248;-6.134;2023-01-16T06:34:56;5.90;;;1.55;;
38683;SDS011;24910;53.248;-6.134;2023-01-16T06:37:25;5.90;;;1.55;;
38683;SDS011;24910;53.248;-6.134;2023-01-16T06:39:54;5.78;;;1.70;;
38683;SDS011;24910;53.248;-6.134;2023-01-16T06:42:25;4.45;;;1.48;;
38683;SDS011;24910;53.248;-6.134;2023-01-16T06:44:54;3.65;;;1.38;;
38683;SDS011;24910;53.248;-6.134;2023-01-16T06:47:23;6.88;;;1.92;;
38683;SDS011;24910;53.248;-6.134;2023-01-16T06:49:57;5.18;;;1.40;;
38683;SDS011;24910;53.248;-6.134;2023-01-16T06:52:26;5.90;;;1.50;;
38683;SDS011;24910;53.248;-6.134;2023-01-16T06:54:55;6.88;;;1.95;;
38683;SDS011;24910;53.248;-6.134;2023-01-16T06:57:24;6.75;;;1.52;;
38683;SDS011;24910;53.248;-6.134;2023-01-16T06:59:53;5.20;;;1.90;;
38683;SDS011;24910;53.248;-6.134;2023-01-16T07:02:22;3.22;;;1.50;;
38683;SDS011;24910;53.248;-6.134;2023-01-16T07:04:51;5.78;;;1.90;;
38683;SDS011;24910;53.248;-6.134;2023-01-16T07:07:21;6.97;;;1.88;;
38683;SDS011;24910;53.248;-6.134;2023-01-16T07:09:50;6.28;;;1.60;;
38683;SDS011;24910;53.248;-6.134;2023-01-16T07:12:19;3.90;;;1.38;;
38683;SDS011;24910;53.248;-6.134;2023-01-16T07:14:56;4.68;;;1.40;;
38683;SDS011;24910;53.248;-6.134;2023-01-16T07:17:43;6.18;;;1.70;;
38683;SDS011;24910;53.248;-6.134;2023-01-16T07:20:29;7.20;;;1.50;;
38683;SDS011;24910;53.248;-6.134;2023-01-16T07:23:19;2.35;;;1.13;;
38683;SDS011;24910;53.248;-6.134;2023-01-16T07:25:50;5.65;;;1.30;;
38683;SDS011;24910;53.248;-6.134;2023-01-16T07:28:20;6.38;;;1.90;;
38683;SDS011;24910;53.248;-6.134;2023-01-16T07:30:49;5.20;;;1.60;;
38683;SDS011;24910;53.248;-6.134;2023-01-16T07:33:18;4.32;;;1.38;;
38683;SDS011;24910;53.248;-6.134;2023-01-16T07:35:48;9.30;;;1.77;;
38683;SDS011;24910;53.248;-6.134;2023-01-16T07:38:18;6.57;;;1.48;;
38683;SDS011;24910;53.248;-6.134;2023-01-16T07:40:47;8.75;;;1.70;;
38683;SDS011;24910;53.248;-6.134;2023-01-16T07:43:16;3.83;;;1.90;;
38683;SDS011;24910;53.248;-6.134;2023-01-16T07:45:45;4.50;;;1.63;;
38683;SDS011;24910;53.248;-6.134;2023-01-16T07:48:19;4.63;;;1.58;;
38683;SDS011;24910;53.248;-6.134;2023-01-16T07:50:49;10.90;;;2.03;;
38683;SDS011;24910;53.248;-6.134;2023-01-16T07:53:21;5.45;;;1.90;;
38683;SDS011;24910;53.248;-6.134;2023-01-16T07:55:53;5.72;;;1.60;;
38683;SDS011;24910;53.248;-6.134;2023-01-16T07:58:26;7.93;;;1.73;;
38683;SDS011;24910;53.248;-6.134;2023-01-16T08:00:56;6.15;;;1.70;;
38683;SDS011;24910;53.248;-6.134;2023-01-16T08:03:26;4.95;;;1.50;;
38683;SDS011;24910;53.248;-6.134;2023-01-16T08:05:55;9.00;;;1.83;;
38683;SDS011;24910;53.248;-6.134;2023-01-16T08:08:26;4.38;;;1.58;;
38683;SDS011;24910;53.248;-6.134;2023-01-16T08:10:56;5.63;;;1.77;;
38683;SDS011;24910;53.248;-6.134;2023-01-16T08:13:26;6.43;;;1.58;;
38683;SDS011;24910;53.248;-6.134;2023-01-16T08:16:10;6.80;;;1.90;;
38683;SDS011;24910;53.248;-6.134;2023-01-16T08:18:39;6.75;;;1.77;;
38683;SDS011;24910;53.248;-6.134;2023-01-16T08:21:08;4.53;;;1.75;;
38683;SDS011;24910;53.248;-6.134;2023-01-16T08:23:39;8.07;;;1.80;;
38683;SDS011;24910;53.248;-6.134;2023-01-16T08:26:08;8.55;;;2.10;;
38683;SDS011;24910;53.248;-6.134;2023-01-16T08:28:37;8.98;;;2.30;;
38683;SDS011;24910;53.248;-6.134;2023-01-16T08:31:07;8.68;;;1.77;;
38683;SDS011;24910;53.248;-6.134;2023-01-16T08:33:39;5.57;;;1.65;;
38683;SDS011;24910;53.248;-6.134;2023-01-16T08:36:09;5.97;;;1.70;;
38683;SDS011;24910;53.248;-6.134;2023-01-16T08:38:41;8.68;;;1.83;;
38683;SDS011;24910;53.248;-6.134;2023-01-16T08:41:10;5.85;;;2.10;;
38683;SDS011;24910;53.248;-6.134;2023-01-16T08:43:53;5.40;;;2.22;;
38683;SDS011;24910;53.248;-6.134;2023-01-16T08:46:39;4.63;;;2.20;;
38683;SDS011;24910;53.248;-6.134;2023-01-16T08:49:23;7.40;;;2.00;;
38683;SDS011;24910;53.248;-6.134;2023-01-16T08:52:09;5.50;;;1.80;;
38683;SDS011;24910;53.248;-6.134;2023-01-16T08:54:40;8.98;;;2.00;;
38683;SDS011;24910;53.248;-6.134;2023-01-16T08:59:38;7.78;;;2.15;;
38683;SDS011;24910;53.248;-6.134;2023-01-16T09:02:07;9.27;;;2.90;;
38683;SDS011;24910;53.248;-6.134;2023-01-16T09:04:39;8.27;;;2.60;;
38683;SDS011;24910;53.248;-6.134;2023-01-16T09:07:08;6.60;;;2.20;;
38683;SDS011;24910;53.248;-6.134;2023-01-16T09:09:37;6.05;;;2.13;;
38683;SDS011;24910;53.248;-6.134;2023-01-16T09:12:09;6.97;;;2.08;;
38683;SDS011;24910;53.248;-6.134;2023-01-16T09:14:56;5.55;;;2.20;;
38683;SDS011;24910;53.248;-6.134;2023-01-16T09:17:26;5.53;;;1.90;;
38683;SDS011;24910;53.248;-6.134;2023-01-16T09:19:55;5.18;;;1.83;;
38683;SDS011;24910;53.248;-6.134;2023-01-16T09:22:25;4.95;;;2.30;;
38683;SDS011;24910;53.248;-6.134;2023-01-16T09:24:54;4.97;;;1.77;;
38683;SDS011;24910;53.248;-6.134;2023-01-16T09:27:25;9.10;;;2.60;;
38683;SDS011;24910;53.248;-6.134;2023-01-16T09:29:54;6.38;;;2.28;;
38683;SDS011;24910;53.248;-6.134;2023-01-16T09:32:30;5.90;;;2.20;;
38683;SDS011;24910;53.248;-6.134;2023-01-16T09:35:06;9.63;;;2.40;;
38683;SDS011;24910;53.248;-6.134;2023-01-16T09:44:16;5.60;;;2.05;;
38683;SDS011;24910;53.248;-6.134;2023-01-16T09:46:45;4.70;;;1.90;;
38683;SDS011;24910;53.248;-6.134;2023-01-16T09:49:19;9.15;;;2.33;;
38683;SDS011;24910;53.248;-6.134;2023-01-16T09:51:55;8.75;;;2.33;;
38683;SDS011;24910;53.248;-6.134;2023-01-16T09:54:47;6.38;;;1.85;;
38683;SDS011;24910;53.248;-6.134;2023-01-16T09:57:38;7.65;;;2.08;;
38683;SDS011;24910;53.248;-6.134;2023-01-16T10:00:29;12.55;;;2.65;;
38683;SDS011;24910;53.248;-6.134;2023-01-16T10:03:01;6.32;;;2.45;;
38683;SDS011;24910;53.248;-6.134;2023-01-16T10:05:33;9.50;;;2.25;;
38683;SDS011;24910;53.248;-6.134;2023-01-16T10:08:08;10.77;;;2.15;;
38683;SDS011;24910;53.248;-6.134;2023-01-16T10:10:46;4.72;;;1.90;;
38683;SDS011;24910;53.248;-6.134;2023-01-16T10:13:33;6.53;;;2.25;;
38683;SDS011;24910;53.248;-6.134;2023-01-16T10:16:15;9.40;;;2.30;;
38683;SDS011;24910;53.248;-6.134;2023-01-16T10:18:53;9.88;;;2.10;;
38683;SDS011;24910;53.248;-6.134;2023-01-16T10:21:31;6.18;;;2.20;;
38683;SDS011;24910;53.248;-6.134;2023-01-16T10:24:18;5.93;;;1.98;;
38683;SDS011;24910;53.248;-6.134;2023-01-16T10:26:58;8.68;;;2.22;;
38683;SDS011;24910;53.248;-6.134;2023-01-16T10:29:29;5.80;;;1.98;;
38683;SDS011;24910;53.248;-6.134;2023-01-16T10:32:03;5.88;;;1.75;;
38683;SDS011;24910;53.248;-6.134;2023-01-16T10:34:39;7.53;;;2.00;;
38683;SDS011;24910;53.248;-6.134;2023-01-16T10:37:13;7.45;;;2.25;;
38683;SDS011;24910;53.248;-6.134;2023-01-16T10:39:43;7.10;;;2.00;;
38683;SDS011;24910;53.248;-6.134;2023-01-16T10:42:12;8.40;;;1.98;;
38683;SDS011;24910;53.248;-6.134;2023-01-16T10:45:09;6.13;;;2.10;;
38683;SDS011;24910;53.248;-6.134;2023-01-16T10:48:01;6.93;;;2.33;;
38683;SDS011;24910;53.248;-6.134;2023-01-16T10:50:48;7.55;;;2.20;;
38683;SDS011;24910;53.248;-6.134;2023-01-16T10:53:17;9.25;;;2.38;;
38683;SDS011;24910;53.248;-6.134;2023-01-16T10:55:46;7.55;;;2.13;;
38683;SDS011;24910;53.248;-6.134;2023-01-16T10:58:21;6.80;;;1.98;;
38683;SDS011;24910;53.248;-6.134;2023-01-16T11:00:56;6.88;;;1.92;;
38683;SDS011;24910;53.248;-6.134;2023-01-16T11:03:39;8.18;;;1.77;;
38683;SDS011;24910;53.248;-6.134;2023-01-16T11:06:13;4.13;;;1.40;;
38683;SDS011;24910;53.248;-6.134;2023-01-16T11:08:43;5.18;;;1.50;;
38683;SDS011;24910;53.248;-6.134;2023-01-16T11:11:15;4.18;;;1.42;;
38683;SDS011;24910;53.248;-6.134;2023-01-16T11:14:03;6.22;;;1.48;;
38683;SDS011;24910;53.248;-6.134;2023-01-16T11:17:10;4.05;;;1.15;;
38683;SDS011;24910;53.248;-6.134;2023-01-16T11:20:08;5.82;;;1.27;;
38683;SDS011;24910;53.248;-6.134;2023-01-16T11:22:40;5.05;;;1.52;;
38683;SDS011;24910;53.248;-6.134;2023-01-16T11:25:13;3.80;;;1.27;;
38683;SDS011;24910;53.248;-6.134;2023-01-16T11:27:45;5.20;;;1.40;;
38683;SDS011;24910;53.248;-6.134;2023-01-16T11:30:18;3.45;;;1.38;;
38683;SDS011;24910;53.248;-6.134;2023-01-16T11:32:49;8.95;;;1.20;;
38683;SDS011;24910;53.248;-6.134;2023-01-16T11:35:28;4.00;;;1.02;;
38683;SDS011;24910;53.248;-6.134;2023-01-16T11:38:00;7.20;;;1.20;;
38683;SDS011;24910;53.248;-6.134;2023-01-16T11:40:31;5.75;;;1.40;;
38683;SDS011;24910;53.248;-6.134;2023-01-16T11:43:06;8.10;;;1.27;;
38683;SDS011;24910;53.248;-6.134;2023-01-16T11:45:58;4.78;;;1.20;;
38683;SDS011;24910;53.248;-6.134;2023-01-16T11:48:35;5.97;;;1.15;;
38683;SDS011;24910;53.248;-6.134;2023-01-16T11:51:11;4.50;;;1.00;;
38683;SDS011;24910;53.248;-6.134;2023-01-16T11:53:42;6.55;;;1.00;;
38683;SDS011;24910;53.248;-6.134;2023-01-16T12:02:15;1.83;;;0.77;;
38683;SDS011;24910;53.248;-6.134;2023-01-16T12:04:57;6.78;;;1.02;;
38683;SDS011;24910;53.248;-6.134;2023-01-16T12:07:59;5.95;;;1.08;;
38683;SDS011;24910;53.248;-6.134;2023-01-16T12:10:41;5.47;;;0.98;;
38683;SDS011;24910;53.248;-6.134;2023-01-16T12:13:14;6.13;;;1.17;;
38683;SDS011;24910;53.248;-6.134;2023-01-16T12:16:20;6.68;;;1.45;;
38683;SDS011;24910;53.248;-6.134;2023-01-16T12:19:02;3.95;;;1.10;;
38683;SDS011;24910;53.248;-6.134;2023-01-16T12:21:43;6.32;;;1.35;;
38683;SDS011;24910;53.248;-6.134;2023-01-16T12:24:21;7.18;;;1.73;;
38683;SDS011;24910;53.248;-6.134;2023-01-16T12:27:02;3.95;;;1.40;;
38683;SDS011;24910;53.248;-6.134;2023-01-16T12:29:42;3.20;;;1.00;;
38683;SDS011;24910;53.248;-6.134;2023-01-16T12:32:40;7.07;;;1.25;;
38683;SDS011;24910;53.248;-6.134;2023-01-16T12:35:26;3.55;;;1.08;;
38683;SDS011;24910;53.248;-6.134;2023-01-16T12:38:07;4.20;;;1.17;;
38683;SDS011;24910;53.248;-6.134;2023-01-16T12:41:06;4.45;;;1.17;;
38683;SDS011;24910;53.248;-6.134;2023-01-16T12:44:08;6.45;;;1.20;;
38683;SDS011;24910;53.248;-6.134;2023-01-16T12:46:50;2.72;;;0.98;;
38683;SDS011;24910;53.248;-6.134;2023-01-16T12:49:32;7.75;;;1.10;;
38683;SDS011;24910;53.248;-6.134;2023-01-16T12:52:14;7.60;;;1.20;;
38683;SDS011;24910;53.248;-6.134;2023-01-16T12:55:06;8.65;;;1.40;;
38683;SDS011;24910;53.248;-6.134;2023-01-16T12:57:56;4.50;;;1.10;;
38683;SDS011;24910;53.248;-6.134;2023-01-16T13:00:36;3.28;;;0.98;;
38683;SDS011;24910;53.248;-6.134;2023-01-16T13:03:11;4.70;;;1.27;;
38683;SDS011;24910;53.248;-6.134;2023-01-16T13:05:47;4.78;;;1.45;;
38683;SDS011;24910;53.248;-6.134;2023-01-16T13:08:18;6.47;;;1.23;;
38683;SDS011;24910;53.248;-6.134;2023-01-16T13:10:52;3.80;;;1.27;;
38683;SDS011;24910;53.248;-6.134;2023-01-16T13:13:44;5.45;;;1.38;;
38683;SDS011;24910;53.248;-6.134;2023-01-16T13:16:20;4.57;;;1.60;;
38683;SDS011;24910;53.248;-6.134;2023-01-16T13:18:54;5.32;;;1.30;;
38683;SDS011;24910;53.248;-6.134;2023-01-16T13:21:32;13.68;;;1.98;;
38683;SDS011;24910;53.248;-6.134;2023-01-16T13:24:08;9.05;;;1.77;;
38683;SDS011;24910;53.248;-6.134;2023-01-16T13:26:42;7.45;;;1.50;;
38683;SDS011;24910;53.248;-6.134;2023-01-16T13:29:16;9.43;;;1.23;;
38683;SDS011;24910;53.248;-6.134;2023-01-16T13:31:54;5.70;;;1.02;;
38683;SDS011;24910;53.248;-6.134;2023-01-16T13:34:47;8.50;;;1.67;;
38683;SDS011;24910;53.248;-6.134;2023-01-16T13:40:45;4.60;;;1.40;;
38683;SDS011;24910;53.248;-6.134;2023-01-16T13:43:31;5.25;;;1.23;;
38683;SDS011;24910;53.248;-6.134;2023-01-16T13:46:22;3.37;;;1.20;;
38683;SDS011;24910;53.248;-6.134;2023-01-16T13:51:22;7.65;;;1.30;;
38683;SDS011;24910;53.248;-6.134;2023-01-16T13:53:52;6.30;;;1.60;;
38683;SDS011;24910;53.248;-6.134;2023-01-16T13:56:26;5.90;;;1.20;;
38683;SDS011;24910;53.248;-6.134;2023-01-16T13:58:58;3.90;;;0.90;;
38683;SDS011;24910;53.248;-6.134;2023-01-16T14:01:33;3.50;;;0.85;;
38683;SDS011;24910;53.248;-6.134;2023-01-16T14:07:00;4.05;;;1.15;;
38683;SDS011;24910;53.248;-6.134;2023-01-16T14:10:07;7.80;;;1.25;;
38683;SDS011;24910;53.248;-6.134;2023-01-16T14:12:58;4.07;;;1.23;;
38683;SDS011;24910;53.248;-6.134;2023-01-16T14:18:40;4.30;;;1.20;;
38683;SDS011;24910;53.248;-6.134;2023-01-16T14:21:17;7.65;;;1.52;;
38683;SDS011;24910;53.248;-6.134;2023-01-16T14:23:49;4.10;;;1.40;;
38683;SDS011;24910;53.248;-6.134;2023-01-16T14:26:34;5.20;;;1.38;;
38683;SDS011;24910;53.248;-6.134;2023-01-16T14:29:13;2.97;;;1.30;;
38683;SDS011;24910;53.248;-6.134;2023-01-16T14:31:50;3.70;;;1.10;;
38683;SDS011;24910;53.248;-6.134;2023-01-16T14:34:23;4.63;;;1.45;;
38683;SDS011;24910;53.248;-6.134;2023-01-16T14:36:55;6.07;;;1.70;;
38683;SDS011;24910;53.248;-6.134;2023-01-16T14:39:31;4.07;;;1.27;;
38683;SDS011;24910;53.248;-6.134;2023-01-16T14:42:03;10.68;;;1.88;;
38683;SDS011;24910;53.248;-6.134;2023-01-16T14:45:09;4.78;;;1.40;;
38683;SDS011;24910;53.248;-6.134;2023-01-16T14:48:29;9.15;;;1.70;;
38683;SDS011;24910;53.248;-6.134;2023-01-16T14:51:32;5.50;;;1.25;;
38683;SDS011;24910;53.248;-6.134;2023-01-16T14:54:31;3.38;;;1.30;;
38683;SDS011;24910;53.248;-6.134;2023-01-16T14:57:20;2.15;;;1.23;;
38683;SDS011;24910;53.248;-6.134;2023-01-16T14:59:54;2.95;;;1.50;;
38683;SDS011;24910;53.248;-6.134;2023-01-16T15:02:27;7.88;;;1.30;;
38683;SDS011;24910;53.248;-6.134;2023-01-16T15:05:05;7.70;;;1.50;;
38683;SDS011;24910;53.248;-6.134;2023-01-16T15:07:38;7.78;;;1.75;;
38683;SDS011;24910;53.248;-6.134;2023-01-16T15:10:11;10.85;;;1.75;;
38683;SDS011;24910;53.248;-6.134;2023-01-16T15:12:44;5.32;;;1.70;;
38683;SDS011;24910;53.248;-6.134;2023-01-16T15:15:21;7.32;;;2.55;;
38683;SDS011;24910;53.248;-6.134;2023-01-16T15:17:52;7.78;;;1.80;;
38683;SDS011;24910;53.248;-6.134;2023-01-16T15:20:41;5.63;;;1.55;;
38683;SDS011;24910;53.248;-6.134;2023-01-16T15:23:30;4.35;;;1.55;;
38683;SDS011;24910;53.248;-6.134;2023-01-16T15:26:07;8.48;;;1.60;;
38683;SDS011;24910;53.248;-6.134;2023-01-16T15:28:46;5.63;;;2.33;;
38683;SDS011;24910;53.248;-6.134;2023-01-16T15:31:27;8.18;;;2.17;;
38683;SDS011;24910;53.248;-6.134;2023-01-16T15:33:59;7.15;;;1.70;;
38683;SDS011;24910;53.248;-6.134;2023-01-16T15:36:31;6.93;;;1.52;;
38683;SDS011;24910;53.248;-6.134;2023-01-16T15:39:20;3.10;;;1.40;;
38683;SDS011;24910;53.248;-6.134;2023-01-16T15:41:53;4.60;;;1.40;;
38683;SDS011;24910;53.248;-6.134;2023-01-16T15:44:41;9.45;;;2.10;;
38683;SDS011;24910;53.248;-6.134;2023-01-16T15:47:39;7.60;;;3.13;;
38683;SDS011;24910;53.248;-6.134;2023-01-16T15:50:21;7.25;;;2.00;;
38683;SDS011;24910;53.248;-6.134;2023-01-16T15:53:01;6.70;;;2.05;;